sensor_id;sensor_type;location;lat;lon;timestamp;pressure;altitude;pressure_sealevel;temperature;humidity
38054;BME280;23859;50.672;7.164;2023-04-02T00:01:34;59122.31;;;9.93;100.00
38054;BME280;23859;50.672;7.164;2023-04-02T00:04:02;59137.72;;;10.05;100.00
38054;BME280;23859;50.672;7.164;2023-04-02T00:06:34;59134.78;;;10.02;100.00
38054;BME280;23859;50.672;7.164;2023-04-02T00:11:42;59135.94;;;10.01;100.00
38054;BME280;23859;50.672;7.164;2023-04-02T00:14:16;59133.63;;;10.04;100.00
38054;BME280;23859;50.672;7.164;2023-04-02T00:16:43;59130.34;;;10.06;100.00
38054;BME280;23859;50.672;7.164;2023-04-02T00:19:22;59143.00;;;10.05;100.00
38054;BME280;23859;50.672;7.164;2023-04-02T00:21:50;59127.06;;;10.00;100.00
38054;BME280;23859;50.672;7.164;2023-04-02T00:24:20;59135.75;;;10.03;100.00
38054;BME280;23859;50.672;7.164;2023-04-02T00:26:48;59153.31;;;10.16;100.00
38054;BME280;23859;50.672;7.164;2023-04-02T00:29:16;59141.16;;;10.09;100.00
38054;BME280;23859;50.672;7.164;2023-04-02T00:31:52;59132.47;;;10.05;100.00
38054;BME280;23859;50.672;7.164;2023-04-02T00:34:36;59153.94;;;10.22;100.00
38054;BME280;23859;50.672;7.164;2023-04-02T00:37:03;59131.00;;;10.04;100.00
38054;BME280;23859;50.672;7.164;2023-04-02T00:39:31;59132.47;;;10.05;100.00
38054;BME280;23859;50.672;7.164;2023-04-02T00:41:59;59137.22;;;10.05;100.00
38054;BME280;23859;50.672;7.164;2023-04-02T00:44:38;59145.75;;;10.19;100.00
38054;BME280;23859;50.672;7.164;2023-04-02T00:47:22;59142.16;;;10.10;100.00
38054;BME280;23859;50.672;7.164;2023-04-02T00:49:56;59135.56;;;10.14;100.00
38054;BME280;23859;50.672;7.164;2023-04-02T00:52:27;59136.91;;;10.02;100.00
38054;BME280;23859;50.672;7.164;2023-04-02T00:55:35;59133.63;;;10.04;100.00
38054;BME280;23859;50.672;7.164;2023-04-02T01:00:48;59138.88;;;10.12;100.00
38054;BME280;23859;50.672;7.164;2023-04-02T01:05:50;59035.84;;;9.05;100.00
38054;BME280;23859;50.672;7.164;2023-04-02T01:08:25;59130.03;;;10.03;100.00
38054;BME280;23859;50.672;7.164;2023-04-02T01:25:07;59130.34;;;9.98;100.00
38054;BME280;23859;50.672;7.164;2023-04-02T01:27:53;59138.06;;;10.08;100.00
38054;BME280;23859;50.672;7.164;2023-04-02T01:30:22;59136.25;;;10.04;100.00
38054;BME280;23859;50.672;7.164;2023-04-02T01:32:49;59135.94;;;10.01;100.00
38054;BME280;23859;50.672;7.164;2023-04-02T01:35:15;59124.75;;;9.95;100.00
38054;BME280;23859;50.672;7.164;2023-04-02T01:38:10;59140.69;;;10.08;100.00
38054;BME280;23859;50.672;7.164;2023-04-02T01:40:44;59131.31;;;10.07;100.00
38054;BME280;23859;50.672;7.164;2023-04-02T01:43:49;59075.44;;;9.48;100.00
38054;BME280;23859;50.672;7.164;2023-04-02T01:46:29;59135.59;;;10.06;100.00
38054;BME280;23859;50.672;7.164;2023-04-02T01:49:09;59131.50;;;10.04;100.00
38054;BME280;23859;50.672;7.164;2023-04-02T01:51:43;59124.13;;;9.97;100.00
38054;BME280;23859;50.672;7.164;2023-04-02T01:54:13;59121.81;;;9.92;100.00
38054;BME280;23859;50.672;7.164;2023-04-02T01:56:40;59137.22;;;10.05;100.00
38054;BME280;23859;50.672;7.164;2023-04-02T01:59:08;59134.28;;;10.02;100.00
38054;BME280;23859;50.672;7.164;2023-04-02T02:01:41;59127.06;;;10.00;100.00
38054;BME280;23859;50.672;7.164;2023-04-02T02:04:10;59129.03;;;10.02;100.00
38054;BME280;23859;50.672;7.164;2023-04-02T02:06:39;59127.72;;;9.98;100.00
38054;BME280;23859;50.672;7.164;2023-04-02T02:09:14;59129.69;;;10.00;100.00
38054;BME280;23859;50.672;7.164;2023-04-02T02:11:42;59144.13;;;10.12;100.00
38054;BME280;23859;50.672;7.164;2023-04-02T02:14:14;59141.50;;;10.12;100.00
38054;BME280;23859;50.672;7.164;2023-04-02T02:16:41;59144.47;;;10.07;100.00
38054;BME280;23859;50.672;7.164;2023-04-02T02:19:29;59134.59;;;10.05;100.00
38054;BME280;23859;50.672;7.164;2023-04-02T02:24:41;59149.19;;;10.22;100.00
38054;BME280;23859;50.672;7.164;2023-04-02T02:32:29;59157.56;;;10.23;100.00
38054;BME280;23859;50.672;7.164;2023-04-02T02:35:06;59171.66;;;10.40;100.00
38054;BME280;23859;50.672;7.164;2023-04-02T02:37:39;59169.19;;;10.37;100.00
38054;BME280;23859;50.672;7.164;2023-04-02T02:40:12;59166.75;;;10.35;100.00
38054;BME280;23859;50.672;7.164;2023-04-02T02:42:46;59153.91;;;10.30;100.00
38054;BME280;23859;50.672;7.164;2023-04-02T02:45:18;59156.88;;;10.25;100.00
38054;BME280;23859;50.672;7.164;2023-04-02T02:47:47;59155.59;;;10.29;100.00
38054;BME280;23859;50.672;7.164;2023-04-02T02:50:24;59153.13;;;10.18;100.00
38054;BME280;23859;50.672;7.164;2023-04-02T02:52:56;59149.53;;;10.17;100.00
38054;BME280;23859;50.672;7.164;2023-04-02T02:55:43;59145.75;;;10.19;100.00
38054;BME280;23859;50.672;7.164;2023-04-02T02:58:19;59149.53;;;10.17;100.00
38054;BME280;23859;50.672;7.164;2023-04-02T03:00:48;59160.66;;;10.31;100.00
38054;BME280;23859;50.672;7.164;2023-04-02T03:03:18;59177.22;;;10.43;100.00
38054;BME280;23859;50.672;7.164;2023-04-02T03:05:53;59160.81;;;10.37;100.00
38054;BME280;23859;50.672;7.164;2023-04-02T03:14:19;59164.91;;;10.38;100.00
38054;BME280;23859;50.672;7.164;2023-04-02T03:16:51;59164.59;;;10.35;100.00
38054;BME280;23859;50.672;7.164;2023-04-02T03:19:35;59174.94;;;10.38;100.00
38054;BME280;23859;50.672;7.164;2023-04-02T03:22:13;59172.63;;;10.41;100.00
38054;BME280;23859;50.672;7.164;2023-04-02T03:25:05;59174.28;;;10.40;100.00
38054;BME280;23859;50.672;7.164;2023-04-02T03:27:42;59163.78;;;10.40;100.00
38054;BME280;23859;50.672;7.164;2023-04-02T03:30:26;59173.94;;;10.37;100.00
38054;BME280;23859;50.672;7.164;2023-04-02T03:32:56;59170.00;;;10.41;100.00
38054;BME280;23859;50.672;7.164;2023-04-02T03:35:38;59178.84;;;10.50;100.00
38054;BME280;23859;50.672;7.164;2023-04-02T03:43:33;59168.69;;;10.45;100.00
38054;BME280;23859;50.672;7.164;2023-04-02T03:48:44;59202.28;;;10.76;100.00
38054;BME280;23859;50.672;7.164;2023-04-02T03:51:26;59196.72;;;10.65;100.00
38054;BME280;23859;50.672;7.164;2023-04-02T03:53:55;59223.47;;;10.89;100.00
38054;BME280;23859;50.672;7.164;2023-04-02T03:56:35;59199.19;;;10.67;100.00
38054;BME280;23859;50.672;7.164;2023-04-02T03:59:26;59193.13;;;10.64;100.00
38054;BME280;23859;50.672;7.164;2023-04-02T04:04:42;59194.94;;;10.61;100.00
38054;BME280;23859;50.672;7.164;2023-04-02T04:07:18;59192.63;;;10.63;100.00
38054;BME280;23859;50.672;7.164;2023-04-02T04:09:46;59188.03;;;10.62;100.00
38054;BME280;23859;50.672;7.164;2023-04-02T04:12:45;59194.59;;;10.65;100.00
38054;BME280;23859;50.672;7.164;2023-04-02T04:20:52;59207.06;;;10.75;100.00
38054;BME280;23859;50.672;7.164;2023-04-02T04:23:30;59192.13;;;10.63;100.00
38054;BME280;23859;50.672;7.164;2023-04-02T04:26:15;59211.66;;;10.77;100.00
38054;BME280;23859;50.672;7.164;2023-04-02T04:28:55;59195.75;;;10.64;100.00
38054;BME280;23859;50.672;7.164;2023-04-02T04:31:43;59189.50;;;10.63;100.00
38054;BME280;23859;50.672;7.164;2023-04-02T04:34:24;59192.63;;;10.63;100.00
38054;BME280;23859;50.672;7.164;2023-04-02T04:36:54;59198.03;;;10.69;100.00
38054;BME280;23859;50.672;7.164;2023-04-02T04:39:53;59192.44;;;10.66;100.00
38054;BME280;23859;50.672;7.164;2023-04-02T04:42:21;59189.00;;;10.62;100.00
38054;BME280;23859;50.672;7.164;2023-04-02T04:44:57;59188.03;;;10.62;100.00
38054;BME280;23859;50.672;7.164;2023-04-02T04:47:31;59181.50;;;10.50;100.00
38054;BME280;23859;50.672;7.164;2023-04-02T04:52:45;59170.63;;;10.47;100.00
38054;BME280;23859;50.672;7.164;2023-04-02T04:55:34;59178.22;;;10.44;100.00
38054;BME280;23859;50.672;7.164;2023-04-02T04:58:13;59174.44;;;10.45;100.00
38054;BME280;23859;50.672;7.164;2023-04-02T05:01:01;59171.66;;;10.40;100.00
38054;BME280;23859;50.672;7.164;2023-04-02T05:06:07;59165.75;;;10.34;100.00
38054;BME280;23859;50.672;7.164;2023-04-02T05:08:37;59146.06;;;10.14;100.00
38054;BME280;23859;50.672;7.164;2023-04-02T05:11:20;59164.78;;;10.33;100.00
38054;BME280;23859;50.672;7.164;2023-04-02T05:13:57;59163.63;;;10.26;100.00
38054;BME280;23859;50.672;7.164;2023-04-02T05:19:07;59146.25;;;10.11;100.00
38054;BME280;23859;50.672;7.164;2023-04-02T05:26:57;59141.84;;;10.07;100.00
38054;BME280;23859;50.672;7.164;2023-04-02T05:29:28;59122.78;;;10.01;100.00
38054;BME280;23859;50.672;7.164;2023-04-02T05:32:05;59152.97;;;10.21;100.00
38054;BME280;23859;50.672;7.164;2023-04-02T05:34:37;59133.97;;;9.99;100.00
38054;BME280;23859;50.672;7.164;2023-04-02T05:37:05;59123.47;;;9.91;100.00
38054;BME280;23859;50.672;7.164;2023-04-02T05:39:34;59122.13;;;9.95;100.00
38054;BME280;23859;50.672;7.164;2023-04-02T05:42:04;59136.88;;;10.10;100.00
38054;BME280;23859;50.672;7.164;2023-04-02T05:44:32;59116.72;;;9.90;100.00
38054;BME280;23859;50.672;7.164;2023-04-02T05:47:12;59091.34;;;9.69;100.00
38054;BME280;23859;50.672;7.164;2023-04-02T05:49:46;59102.66;;;9.73;100.00
38054;BME280;23859;50.672;7.164;2023-04-02T05:52:22;59051.06;;;9.13;100.00
38054;BME280;23859;50.672;7.164;2023-04-02T05:57:38;59084.47;;;9.54;100.00
38054;BME280;23859;50.672;7.164;2023-04-02T06:00:16;59101.34;;;9.69;100.00
38054;BME280;23859;50.672;7.164;2023-04-02T06:03:03;59082.66;;;9.50;100.00
38054;BME280;23859;50.672;7.164;2023-04-02T06:05:40;59092.00;;;9.59;100.00
38054;BME280;23859;50.672;7.164;2023-04-02T06:08:09;59100.84;;;9.68;100.00
38054;BME280;23859;50.672;7.164;2023-04-02T06:10:50;59094.13;;;9.59;100.00
38054;BME280;23859;50.672;7.164;2023-04-02T06:13:19;59097.56;;;9.62;100.00
38054;BME280;23859;50.672;7.164;2023-04-02T06:15:46;59079.88;;;9.44;100.00
38054;BME280;23859;50.672;7.164;2023-04-02T06:18:24;59068.59;;;9.41;100.00
38054;BME280;23859;50.672;7.164;2023-04-02T06:20:52;59073.50;;;9.38;100.00
38054;BME280;23859;50.672;7.164;2023-04-02T06:23:44;59078.25;;;9.45;100.00
38054;BME280;23859;50.672;7.164;2023-04-02T06:26:52;59072.50;;;9.45;100.00
38054;BME280;23859;50.672;7.164;2023-04-02T06:29:38;59086.28;;;9.51;100.00
38054;BME280;23859;50.672;7.164;2023-04-02T06:32:09;59059.91;;;9.29;100.00
38054;BME280;23859;50.672;7.164;2023-04-02T06:34:38;59074.97;;;9.39;100.00
38054;BME280;23859;50.672;7.164;2023-04-02T06:37:16;59062.19;;;9.34;100.00
38054;BME280;23859;50.672;7.164;2023-04-02T06:39:44;59081.19;;;9.48;100.00
38054;BME280;23859;50.672;7.164;2023-04-02T06:42:24;59079.06;;;9.49;100.00
38054;BME280;23859;50.672;7.164;2023-04-02T06:44:51;59094.31;;;9.56;100.00
38054;BME280;23859;50.672;7.164;2023-04-02T06:47:29;59091.38;;;9.53;100.00
38054;BME280;23859;50.672;7.164;2023-04-02T06:50:24;59085.44;;;9.55;100.00
38054;BME280;23859;50.672;7.164;2023-04-02T06:52:57;59084.47;;;9.46;100.00
38054;BME280;23859;50.672;7.164;2023-04-02T06:58:01;59071.69;;;9.41;100.00
38054;BME280;23859;50.672;7.164;2023-04-02T07:03:00;59070.41;;;9.37;100.00
38054;BME280;23859;50.672;7.164;2023-04-02T07:05:27;59083.66;;;9.51;100.00
38054;BME280;23859;50.672;7.164;2023-04-02T07:07:53;59072.50;;;9.45;100.00
38054;BME280;23859;50.672;7.164;2023-04-02T07:10:19;59073.34;;;9.40;100.00
38054;BME280;23859;50.672;7.164;2023-04-02T07:12:46;59062.69;;;9.35;100.00
38054;BME280;23859;50.672;7.164;2023-04-02T07:15:18;59075.94;;;9.48;100.00
38054;BME280;23859;50.672;7.164;2023-04-02T07:17:47;59077.59;;;9.47;100.00
38054;BME280;23859;50.672;7.164;2023-04-02T07:20:33;59081.69;;;9.49;100.00
38054;BME280;23859;50.672;7.164;2023-04-02T07:23:02;59083.81;;;9.48;100.00
38054;BME280;23859;50.672;7.164;2023-04-02T07:25:28;59065.97;;;9.33;100.00
38054;BME280;23859;50.672;7.164;2023-04-02T07:27:55;59077.44;;;9.42;100.00
38054;BME280;23859;50.672;7.164;2023-04-02T07:30:22;59056.28;;;9.28;100.00
38054;BME280;23859;50.672;7.164;2023-04-02T07:32:48;59055.00;;;9.25;100.00
38054;BME280;23859;50.672;7.164;2023-04-02T07:35:14;59065.16;;;9.37;100.00
38054;BME280;23859;50.672;7.164;2023-04-02T07:37:40;59069.56;;;9.34;100.00
38054;BME280;23859;50.672;7.164;2023-04-02T07:40:14;59074.31;;;9.41;100.00
38054;BME280;23859;50.672;7.164;2023-04-02T07:42:41;59062.19;;;9.34;100.00
38054;BME280;23859;50.672;7.164;2023-04-02T07:45:07;59061.38;;;9.31;100.00
38054;BME280;23859;50.672;7.164;2023-04-02T07:47:34;59064.50;;;9.31;100.00
38054;BME280;23859;50.672;7.164;2023-04-02T07:50:00;59065.16;;;9.29;100.00
38054;BME280;23859;50.672;7.164;2023-04-02T07:52:26;59064.50;;;9.31;100.00
38054;BME280;23859;50.672;7.164;2023-04-02T07:54:52;59060.56;;;9.35;100.00
38054;BME280;23859;50.672;7.164;2023-04-02T07:57:18;59071.22;;;9.41;100.00
38054;BME280;23859;50.672;7.164;2023-04-02T07:59:44;59076.59;;;9.46;100.00
38054;BME280;23859;50.672;7.164;2023-04-02T08:02:19;59065.47;;;9.32;100.00
38054;BME280;23859;50.672;7.164;2023-04-02T08:04:46;59068.59;;;9.33;100.00
38054;BME280;23859;50.672;7.164;2023-04-02T08:07:12;59047.63;;;9.17;100.00
38054;BME280;23859;50.672;7.164;2023-04-02T08:09:39;59061.88;;;9.24;100.00
38054;BME280;23859;50.672;7.164;2023-04-02T08:12:05;59077.94;;;9.42;100.00
38054;BME280;23859;50.672;7.164;2023-04-02T08:14:31;59078.25;;;9.45;100.00
38054;BME280;23859;50.672;7.164;2023-04-02T08:16:57;59075.63;;;9.45;100.00
38054;BME280;23859;50.672;7.164;2023-04-02T08:19:23;59084.78;;;9.57;100.00
38054;BME280;23859;50.672;7.164;2023-04-02T08:21:49;59076.94;;;9.49;100.00
38054;BME280;23859;50.672;7.164;2023-04-02T08:24:19;59081.19;;;9.48;100.00
38054;BME280;23859;50.672;7.164;2023-04-02T08:26:47;59093.31;;;9.63;100.00
38054;BME280;23859;50.672;7.164;2023-04-02T08:29:14;59108.38;;;9.81;100.00
38054;BME280;23859;50.672;7.164;2023-04-02T08:31:40;59090.22;;;9.55;100.00
38054;BME280;23859;50.672;7.164;2023-04-02T08:34:06;59095.13;;;9.60;100.00
38054;BME280;23859;50.672;7.164;2023-04-02T08:36:37;59094.59;;;9.67;100.00
38054;BME280;23859;50.672;7.164;2023-04-02T08:39:05;59109.03;;;9.79;100.00
38054;BME280;23859;50.672;7.164;2023-04-02T08:41:45;59117.69;;;9.91;100.00
38054;BME280;23859;50.672;7.164;2023-04-02T08:47:04;59115.59;;;9.83;100.00
38054;BME280;23859;50.672;7.164;2023-04-02T08:49:49;59087.72;;;9.60;100.00
38054;BME280;23859;50.672;7.164;2023-04-02T08:52:23;59081.03;;;9.51;100.00
38054;BME280;23859;50.672;7.164;2023-04-02T08:54:51;59069.06;;;9.41;100.00
38054;BME280;23859;50.672;7.164;2023-04-02T09:00:05;59074.81;;;9.42;100.00
38054;BME280;23859;50.672;7.164;2023-04-02T09:05:04;59075.31;;;9.42;100.00
38054;BME280;23859;50.672;7.164;2023-04-02T09:07:31;59078.41;;;9.51;100.00
38054;BME280;23859;50.672;7.164;2023-04-02T09:09:58;59106.25;;;9.74;100.00
38054;BME280;23859;50.672;7.164;2023-04-02T09:12:29;59101.16;;;9.71;100.00
38054;BME280;23859;50.672;7.164;2023-04-02T09:15:21;59085.59;;;9.53;100.00
38054;BME280;23859;50.672;7.164;2023-04-02T09:17:59;59077.75;;;9.45;100.00
38054;BME280;23859;50.672;7.164;2023-04-02T09:20:26;59089.88;;;9.60;100.00
38054;BME280;23859;50.672;7.164;2023-04-02T09:22:53;59090.34;;;9.60;100.00
38054;BME280;23859;50.672;7.164;2023-04-02T09:25:23;59090.19;;;9.63;100.00
38054;BME280;23859;50.672;7.164;2023-04-02T09:27:53;59088.06;;;9.55;100.00
38054;BME280;23859;50.672;7.164;2023-04-02T09:33:06;59097.91;;;9.65;100.00
38054;BME280;23859;50.672;7.164;2023-04-02T09:35:34;59088.91;;;9.51;100.00
38054;BME280;23859;50.672;7.164;2023-04-02T09:43:15;59089.22;;;9.62;100.00
38054;BME280;23859;50.672;7.164;2023-04-02T09:45:43;59127.53;;;10.00;100.00
38054;BME280;23859;50.672;7.164;2023-04-02T09:48:35;59134.94;;;10.08;100.00
38054;BME280;23859;50.672;7.164;2023-04-02T09:53:38;59113.28;;;9.86;100.00
38054;BME280;23859;50.672;7.164;2023-04-02T09:56:13;59117.06;;;9.85;100.00
38054;BME280;23859;50.672;7.164;2023-04-02T09:58:41;59108.22;;;9.76;100.00
38054;BME280;23859;50.672;7.164;2023-04-02T10:01:27;59111.00;;;9.81;100.00
38054;BME280;23859;50.672;7.164;2023-04-02T10:03:54;59107.22;;;9.75;100.00
38054;BME280;23859;50.672;7.164;2023-04-02T10:06:21;59118.69;;;9.92;100.00
38054;BME280;23859;50.672;7.164;2023-04-02T10:08:47;59110.97;;;9.89;100.00
38054;BME280;23859;50.672;7.164;2023-04-02T10:11:20;59126.25;;;9.96;100.00
38054;BME280;23859;50.672;7.164;2023-04-02T10:13:59;59117.72;;;9.83;100.00
38054;BME280;23859;50.672;7.164;2023-04-02T10:16:31;59134.78;;;10.02;100.00
38054;BME280;23859;50.672;7.164;2023-04-02T10:21:38;59148.03;;;10.24;100.00
38054;BME280;23859;50.672;7.164;2023-04-02T10:24:25;59152.66;;;10.18;100.00
38054;BME280;23859;50.672;7.164;2023-04-02T10:29:25;59158.53;;;10.32;99.05
38054;BME280;23859;50.672;7.164;2023-04-02T10:34:34;59120.66;;;9.86;100.00
38054;BME280;23859;50.672;7.164;2023-04-02T10:42:50;59131.97;;;10.05;96.52
38054;BME280;23859;50.672;7.164;2023-04-02T10:45:49;59130.34;;;10.06;96.50
38054;BME280;23859;50.672;7.164;2023-04-02T10:48:39;59146.88;;;10.17;96.05
38054;BME280;23859;50.672;7.164;2023-04-02T10:51:21;59106.88;;;9.80;93.51
38054;BME280;23859;50.672;7.164;2023-04-02T10:56:20;59097.91;;;9.65;96.69
38054;BME280;23859;50.672;7.164;2023-04-02T10:59:09;59091.66;;;9.64;96.74
38054;BME280;23859;50.672;7.164;2023-04-02T11:01:41;59082.81;;;9.55;95.82
38054;BME280;23859;50.672;7.164;2023-04-02T11:04:22;59087.91;;;9.58;96.06
38054;BME280;23859;50.672;7.164;2023-04-02T11:07:00;59094.47;;;9.62;98.39
38054;BME280;23859;50.672;7.164;2023-04-02T11:09:31;59095.75;;;9.66;95.99
38054;BME280;23859;50.672;7.164;2023-04-02T11:11:59;59094.94;;;9.70;93.56
38054;BME280;23859;50.672;7.164;2023-04-02T11:14:29;59081.19;;;9.48;93.50
38054;BME280;23859;50.672;7.164;2023-04-02T11:16:57;59089.56;;;9.57;95.58
38054;BME280;23859;50.672;7.164;2023-04-02T11:19:32;59087.09;;;9.54;94.04
38054;BME280;23859;50.672;7.164;2023-04-02T11:21:59;59102.81;;;9.70;95.00
38054;BME280;23859;50.672;7.164;2023-04-02T11:24:35;59118.69;;;9.92;95.17
38054;BME280;23859;50.672;7.164;2023-04-02T11:27:16;59145.25;;;10.18;95.18
38054;BME280;23859;50.672;7.164;2023-04-02T11:35:25;59244.78;;;11.16;88.43
38054;BME280;23859;50.672;7.164;2023-04-02T11:37:53;59246.75;;;11.18;87.67
38054;BME280;23859;50.672;7.164;2023-04-02T11:40:47;59233.59;;;11.10;88.48
38054;BME280;23859;50.672;7.164;2023-04-02T11:46:00;59235.44;;;11.07;89.94
38054;BME280;23859;50.672;7.164;2023-04-02T11:48:28;59252.31;;;11.21;87.14
38054;BME280;23859;50.672;7.164;2023-04-02T11:50:56;59215.09;;;10.89;88.64
38054;BME280;23859;50.672;7.164;2023-04-02T11:53:31;59199.81;;;10.73;86.93
38054;BME280;23859;50.672;7.164;2023-04-02T12:09:56;59213.09;;;10.87;86.68
38054;BME280;23859;50.672;7.164;2023-04-02T12:12:35;59232.00;;;11.03;88.58
38054;BME280;23859;50.672;7.164;2023-04-02T12:18:18;59228.72;;;10.97;87.46
38054;BME280;23859;50.672;7.164;2023-04-02T12:20:50;59222.94;;;10.97;86.86
38054;BME280;23859;50.672;7.164;2023-04-02T12:23:23;59208.84;;;10.88;85.95
38054;BME280;23859;50.672;7.164;2023-04-02T12:26:03;59231.16;;;11.00;86.07
38054;BME280;23859;50.672;7.164;2023-04-02T12:28:31;59215.56;;;10.89;86.54
38054;BME280;23859;50.672;7.164;2023-04-02T12:33:43;59223.75;;;11.00;87.47
38054;BME280;23859;50.672;7.164;2023-04-02T12:38:53;59226.75;;;10.95;85.34
38054;BME280;23859;50.672;7.164;2023-04-02T12:44:01;59218.19;;;10.97;86.80
38054;BME280;23859;50.672;7.164;2023-04-02T12:46:29;59227.41;;;10.93;85.97
38054;BME280;23859;50.672;7.164;2023-04-02T12:49:35;59206.41;;;10.77;85.37
38054;BME280;23859;50.672;7.164;2023-04-02T12:51:54;59190.97;;;10.64;85.97
38054;BME280;23859;50.672;7.164;2023-04-02T12:54:21;59164.44;;;10.38;85.19
38054;BME280;23859;50.672;7.164;2023-04-02T12:56:48;59180.66;;;10.54;85.39
38054;BME280;23859;50.672;7.164;2023-04-02T12:59:32;59211.63;;;10.85;84.81
38054;BME280;23859;50.672;7.164;2023-04-02T13:02:02;59207.06;;;10.75;86.07
38054;BME280;23859;50.672;7.164;2023-04-02T13:04:53;59193.28;;;10.62;84.73
38054;BME280;23859;50.672;7.164;2023-04-02T13:07:22;59181.50;;;10.50;84.18
38054;BME280;23859;50.672;7.164;2023-04-02T13:09:52;59186.72;;;10.58;84.92
38054;BME280;23859;50.672;7.164;2023-04-02T13:12:36;59174.59;;;10.51;86.37
38054;BME280;23859;50.672;7.164;2023-04-02T13:15:03;59208.06;;;10.76;85.33
38054;BME280;23859;50.672;7.164;2023-04-02T13:17:48;59208.06;;;10.76;85.04
38054;BME280;23859;50.672;7.164;2023-04-02T13:20:29;59209.53;;;10.78;84.95
38054;BME280;23859;50.672;7.164;2023-04-02T13:22:57;59190.00;;;10.63;83.17
38054;BME280;23859;50.672;7.164;2023-04-02T13:25:35;59206.88;;;10.78;83.41
38054;BME280;23859;50.672;7.164;2023-04-02T13:28:02;59157.88;;;10.34;84.49
38054;BME280;23859;50.672;7.164;2023-04-02T13:30:28;59202.78;;;10.76;84.16
38054;BME280;23859;50.672;7.164;2023-04-02T13:32:55;59205.38;;;10.84;84.98
38054;BME280;23859;50.672;7.164;2023-04-02T13:35:21;59232.47;;;11.04;84.18
38054;BME280;23859;50.672;7.164;2023-04-02T13:37:47;59218.19;;;10.89;83.35
38054;BME280;23859;50.672;7.164;2023-04-02T13:40:15;59215.91;;;10.92;83.08
38054;BME280;23859;50.672;7.164;2023-04-02T13:42:43;59213.97;;;10.82;84.42
38054;BME280;23859;50.672;7.164;2023-04-02T13:45:34;59219.00;;;10.93;84.35
38054;BME280;23859;50.672;7.164;2023-04-02T13:48:01;59232.81;;;11.07;84.94
38054;BME280;23859;50.672;7.164;2023-04-02T13:50:30;59209.00;;;10.85;82.00
38054;BME280;23859;50.672;7.164;2023-04-02T13:52:58;59206.41;;;10.77;83.12
38054;BME280;23859;50.672;7.164;2023-04-02T13:55:30;59202.78;;;10.76;83.21
38054;BME280;23859;50.672;7.164;2023-04-02T13:57:57;59228.88;;;10.95;83.51
38054;BME280;23859;50.672;7.164;2023-04-02T14:00:23;59213.59;;;10.87;82.95
38054;BME280;23859;50.672;7.164;2023-04-02T14:02:53;59205.06;;;10.81;83.53
38054;BME280;23859;50.672;7.164;2023-04-02T14:22:03;59178.19;;;10.52;83.02
38054;BME280;23859;50.672;7.164;2023-04-02T14:30:35;59189.69;;;10.61;84.38
38054;BME280;23859;50.672;7.164;2023-04-02T14:35:58;59163.28;;;10.31;82.28
38054;BME280;23859;50.672;7.164;2023-04-02T14:38:42;59161.31;;;10.37;82.55
38054;BME280;23859;50.672;7.164;2023-04-02T14:41:25;59183.44;;;10.52;83.62
38054;BME280;23859;50.672;7.164;2023-04-02T14:44:03;59169.34;;;10.43;84.25
38054;BME280;23859;50.672;7.164;2023-04-02T14:46:31;59187.06;;;10.61;83.32
38054;BME280;23859;50.672;7.164;2023-04-02T14:49:27;59164.44;;;10.38;85.92
38054;BME280;23859;50.672;7.164;2023-04-02T14:52:05;59190.00;;;10.63;84.05
38054;BME280;23859;50.672;7.164;2023-04-02T14:57:28;59193.28;;;10.62;84.31
38054;BME280;23859;50.672;7.164;2023-04-02T15:02:47;59182.13;;;10.56;83.88
38054;BME280;23859;50.672;7.164;2023-04-02T15:05:30;59159.69;;;10.30;84.73
38054;BME280;23859;50.672;7.164;2023-04-02T15:08:06;59154.25;;;10.25;85.90
38054;BME280;23859;50.672;7.164;2023-04-02T15:13:36;59189.16;;;10.68;83.54
38054;BME280;23859;50.672;7.164;2023-04-02T15:16:20;59172.63;;;10.49;82.79
38054;BME280;23859;50.672;7.164;2023-04-02T15:19:17;59139.84;;;10.13;83.79
38054;BME280;23859;50.672;7.164;2023-04-02T15:22:18;59148.69;;;10.22;83.86
38054;BME280;23859;50.672;7.164;2023-04-02T15:27:49;59162.94;;;10.36;81.01
38054;BME280;23859;50.672;7.164;2023-04-02T15:30:43;59165.06;;;10.36;81.19
38054;BME280;23859;50.672;7.164;2023-04-02T15:36:16;59137.72;;;10.05;83.52
38054;BME280;23859;50.672;7.164;2023-04-02T15:39:11;59135.59;;;10.06;81.84
38054;BME280;23859;50.672;7.164;2023-04-02T15:42:20;59125.09;;;9.98;83.27
38054;BME280;23859;50.672;7.164;2023-04-02T15:53:19;59116.41;;;9.87;80.20
38054;BME280;23859;50.672;7.164;2023-04-02T15:59:11;59092.81;;;9.63;80.46
38054;BME280;23859;50.672;7.164;2023-04-02T16:04:47;59084.94;;;9.63;80.83
38054;BME280;23859;50.672;7.164;2023-04-02T16:12:46;59071.38;;;9.38;79.81
38054;BME280;23859;50.672;7.164;2023-04-02T16:15:21;59078.25;;;9.45;79.44
38054;BME280;23859;50.672;7.164;2023-04-02T16:17:55;59061.53;;;9.28;78.09
38054;BME280;23859;50.672;7.164;2023-04-02T16:20:33;59062.34;;;9.32;77.82
38054;BME280;23859;50.672;7.164;2023-04-02T16:23:10;59061.88;;;9.31;78.29
38054;BME280;23859;50.672;7.164;2023-04-02T16:26:11;59061.53;;;9.28;76.35
38054;BME280;23859;50.672;7.164;2023-04-02T16:40:28;59031.59;;;8.98;76.57
38054;BME280;23859;50.672;7.164;2023-04-02T16:43:04;59037.63;;;9.10;77.61
38054;BME280;23859;50.672;7.164;2023-04-02T16:45:50;59045.50;;;9.18;76.99
38054;BME280;23859;50.672;7.164;2023-04-02T16:48:43;59043.38;;;9.10;76.90
38054;BME280;23859;50.672;7.164;2023-04-02T16:51:27;59013.25;;;8.90;76.22
38054;BME280;23859;50.672;7.164;2023-04-02T16:54:18;59026.84;;;8.99;76.43
38054;BME280;23859;50.672;7.164;2023-04-02T17:08:15;59008.84;;;8.78;75.06
38054;BME280;23859;50.672;7.164;2023-04-02T17:11:01;59008.03;;;8.74;74.76
38054;BME280;23859;50.672;7.164;2023-04-02T17:13:41;58904.16;;;7.75;73.89
38054;BME280;23859;50.672;7.164;2023-04-02T17:16:20;59001.31;;;8.73;75.38
38054;BME280;23859;50.672;7.164;2023-04-02T17:18:52;58994.44;;;8.66;73.27
38054;BME280;23859;50.672;7.164;2023-04-02T17:21:26;58999.34;;;8.71;73.03